Time;durP1;ratioP1;P1;durP2;ratioP2;P2;SDS_P1;SDS_P2;PMS_P1;PMS_P2;Temp;Humidity;BMP_temperature;BMP_pressure;BME280_temperature;BME280_humidity;BME280_pressure;Samples;Min_cycle;Max_cycle;Signal;HPM_P1;HPM_P2
2021/03/03 00:01:40;;;;;;;53.13;24.37;;;;;;;;;;5048184;28;20194;-51
2021/03/03 00:04:05;;;;;;;60.13;25.57;;;;;;;;;;5047752;28;20201;-49
2021/03/03 00:06:30;;;;;;;56.73;23.53;;;;;;;;;;5047769;28;20220;-47
2021/03/03 00:08:58;;;;;;;39.67;20.70;;;;;;;;;;5044394;28;20194;-46
2021/03/03 00:11:23;;;;;;;42.77;21.33;;;;;;;;;;5042802;28;20638;-46
2021/03/03 00:13:48;;;;;;;46.50;20.57;;;;;;;;;;5037346;28;20244;-48
2021/03/03 00:16:13;;;;;;;40.63;19.43;;;;;;;;;;5043238;28;20639;-45
2021/03/03 00:18:39;;;;;;;41.43;20.23;;;;;;;;;;5024866;28;20186;-46
2021/03/03 00:21:04;;;;;;;41.43;19.80;;;;;;;;;;5043160;28;20217;-51
2021/03/03 00:23:29;;;;;;;37.13;18.17;;;;;;;;;;5043710;28;20217;-46
2021/03/03 00:25:54;;;;;;;30.97;17.37;;;;;;;;;;5044730;28;20186;-47
2021/03/03 00:28:20;;;;;;;32.50;16.37;;;;;;;;;;5028308;28;20194;-44
2021/03/03 00:30:45;;;;;;;39.17;20.17;;;;;;;;;;5042424;28;20213;-48
2021/03/03 00:33:10;;;;;;;44.00;20.13;;;;;;;;;;5027969;28;20263;-48
2021/03/03 00:35:36;;;;;;;45.13;21.27;;;;;;;;;;5046957;28;20259;-47
2021/03/03 00:38:01;;;;;;;38.23;19.10;;;;;;;;;;5044814;28;20669;-46
2021/03/03 00:40:26;;;;;;;35.50;18.63;;;;;;;;;;5038304;28;20208;-48
2021/03/03 00:42:52;;;;;;;35.50;17.70;;;;;;;;;;5048540;28;20662;-45
2021/03/03 00:45:17;;;;;;;35.97;18.43;;;;;;;;;;5049072;28;20211;-48
2021/03/03 00:47:42;;;;;;;39.03;18.93;;;;;;;;;;5046264;28;20210;-46
2021/03/03 00:50:09;;;;;;;38.83;17.93;;;;;;;;;;5047915;28;20816;-45
2021/03/03 00:52:34;;;;;;;36.87;18.40;;;;;;;;;;5044788;28;20667;-47
2021/03/03 00:54:59;;;;;;;58.20;19.60;;;;;;;;;;5041230;28;20226;-47
2021/03/03 00:57:25;;;;;;;43.67;16.60;;;;;;;;;;5045646;28;20255;-44
2021/03/03 00:59:50;;;;;;;52.23;15.40;;;;;;;;;;5047535;28;20213;-47
2021/03/03 01:02:18;;;;;;;37.67;13.60;;;;;;;;;;5039978;28;20213;-49
2021/03/03 01:04:44;;;;;;;57.37;14.47;;;;;;;;;;5049461;28;20623;-44
2021/03/03 01:07:10;;;;;;;42.37;11.33;;;;;;;;;;5047038;28;20589;-47
2021/03/03 01:09:35;;;;;;;53.90;13.93;;;;;;;;;;5042842;28;20210;-46
2021/03/03 01:12:00;;;;;;;51.80;14.50;;;;;;;;;;5049401;28;20182;-49
2021/03/03 01:14:25;;;;;;;23.87;13.20;;;;;;;;;;5045188;28;20726;-48
2021/03/03 01:16:54;;;;;;;26.20;14.07;;;;;;;;;;5038422;28;20189;-47
2021/03/03 01:19:20;;;;;;;24.87;13.13;;;;;;;;;;5026147;28;20344;-48
2021/03/03 01:21:45;;;;;;;20.00;12.73;;;;;;;;;;5049618;28;20284;-46
2021/03/03 01:24:11;;;;;;;20.70;12.73;;;;;;;;;;5048613;28;20194;-45
2021/03/03 01:26:36;;;;;;;21.73;12.57;;;;;;;;;;5048784;28;20260;-48
2021/03/03 01:29:02;;;;;;;23.77;12.87;;;;;;;;;;5046458;28;20676;-46
2021/03/03 01:31:27;;;;;;;41.97;13.90;;;;;;;;;;5044555;28;20567;-45
2021/03/03 01:33:53;;;;;;;23.93;14.33;;;;;;;;;;5050933;28;20561;-46
2021/03/03 01:36:18;;;;;;;22.20;13.13;;;;;;;;;;5046708;28;20186;-45
2021/03/03 01:38:43;;;;;;;35.57;14.03;;;;;;;;;;5046291;28;20697;-45
2021/03/03 01:41:08;;;;;;;30.17;15.33;;;;;;;;;;5047414;28;20219;-47
2021/03/03 01:43:34;;;;;;;29.30;14.47;;;;;;;;;;5049257;28;20654;-46
2021/03/03 01:46:00;;;;;;;32.63;16.13;;;;;;;;;;5046684;28;20194;-46
2021/03/03 01:48:25;;;;;;;52.90;16.23;;;;;;;;;;5048430;28;20642;-47
2021/03/03 01:50:50;;;;;;;25.27;14.67;;;;;;;;;;5031933;28;20263;-47
2021/03/03 01:53:16;;;;;;;52.33;13.70;;;;;;;;;;5038472;28;20190;-47
2021/03/03 01:55:42;;;;;;;43.27;13.27;;;;;;;;;;5045957;28;20224;-47
2021/03/03 01:58:07;;;;;;;59.17;16.10;;;;;;;;;;5049274;28;20186;-47
2021/03/03 02:00:33;;;;;;;125.20;17.43;;;;;;;;;;5049950;28;20228;-46
2021/03/03 02:02:58;;;;;;;178.97;19.37;;;;;;;;;;5043371;28;20227;-48
2021/03/03 02:05:25;;;;;;;150.80;20.50;;;;;;;;;;5047421;28;20205;-48
2021/03/03 02:08:06;;;;;;;154.10;20.23;;;;;;;;;;5051529;28;20236;-48
2021/03/03 02:10:52;;;;;;;73.33;18.10;;;;;;;;;;5045918;28;20214;-48
2021/03/03 02:13:41;;;;;;;36.43;17.87;;;;;;;;;;5028579;28;20197;-46
2021/03/03 02:16:10;;;;;;;87.57;17.43;;;;;;;;;;5049596;28;20214;-48
2021/03/03 02:18:36;;;;;;;133.60;19.50;;;;;;;;;;5027405;28;20236;-48
2021/03/03 02:21:17;;;;;;;66.20;18.03;;;;;;;;;;5024953;28;20224;-49
2021/03/03 02:24:05;;;;;;;29.27;15.83;;;;;;;;;;5047630;28;20286;-49
2021/03/03 02:26:34;;;;;;;30.03;16.40;;;;;;;;;;5026323;28;20214;-48
2021/03/03 02:29:04;;;;;;;26.97;15.53;;;;;;;;;;5049491;28;20184;-47
2021/03/03 02:31:31;;;;;;;30.20;16.57;;;;;;;;;;5047058;28;20194;-53
2021/03/03 02:33:58;;;;;;;42.27;18.47;;;;;;;;;;5046635;28;20650;-47
2021/03/03 02:36:25;;;;;;;29.67;14.03;;;;;;;;;;5045822;28;20218;-47
2021/03/03 02:38:50;;;;;;;40.73;13.33;;;;;;;;;;5049444;28;20266;-48
2021/03/03 02:41:17;;;;;;;45.17;14.10;;;;;;;;;;5031796;28;20761;-47
2021/03/03 02:43:43;;;;;;;23.53;11.50;;;;;;;;;;5044146;28;20195;-49
2021/03/03 02:46:09;;;;;;;24.07;13.13;;;;;;;;;;5038405;28;20618;-48
2021/03/03 02:48:35;;;;;;;41.53;14.17;;;;;;;;;;5048885;28;20194;-48
2021/03/03 02:51:01;;;;;;;25.67;12.73;;;;;;;;;;5044617;28;20580;-49
2021/03/03 02:53:26;;;;;;;27.60;13.37;;;;;;;;;;5045599;28;20201;-49
2021/03/03 02:55:52;;;;;;;27.70;14.03;;;;;;;;;;5030174;28;20186;-47
2021/03/03 02:58:20;;;;;;;28.30;14.97;;;;;;;;;;5049597;28;20178;-47
2021/03/03 03:00:46;;;;;;;24.70;12.33;;;;;;;;;;5033621;28;20296;-47
2021/03/03 03:03:11;;;;;;;27.57;12.50;;;;;;;;;;5047501;28;20221;-46
2021/03/03 03:05:39;;;;;;;56.70;13.30;;;;;;;;;;5050073;28;20249;-52
2021/03/03 03:08:08;;;;;;;27.00;11.47;;;;;;;;;;5051568;28;20217;-47
2021/03/03 03:10:35;;;;;;;44.43;11.77;;;;;;;;;;5023929;28;20213;-49
2021/03/03 03:13:01;;;;;;;47.20;13.77;;;;;;;;;;5049825;28;20781;-49
2021/03/03 03:15:31;;;;;;;18.07;9.67;;;;;;;;;;5033970;28;20273;-48
2021/03/03 03:18:04;;;;;;;27.97;12.67;;;;;;;;;;5049707;28;20174;-48
2021/03/03 03:20:33;;;;;;;30.43;10.17;;;;;;;;;;5044883;28;20213;-53
2021/03/03 03:23:03;;;;;;;16.77;10.47;;;;;;;;;;5026747;28;20637;-48
2021/03/03 03:25:29;;;;;;;23.20;12.53;;;;;;;;;;5039823;28;20194;-49
2021/03/03 03:27:57;;;;;;;31.77;13.17;;;;;;;;;;5041986;28;20212;-48
2021/03/03 03:30:24;;;;;;;36.80;14.63;;;;;;;;;;5045525;28;20214;-48
2021/03/03 03:32:49;;;;;;;41.30;14.00;;;;;;;;;;5040540;28;20650;-46
2021/03/03 03:35:15;;;;;;;32.90;14.43;;;;;;;;;;5045089;28;20190;-48
2021/03/03 03:37:41;;;;;;;28.70;14.73;;;;;;;;;;5044766;28;20190;-46
2021/03/03 03:40:08;;;;;;;35.10;15.93;;;;;;;;;;5037671;28;20198;-46
2021/03/03 03:42:34;;;;;;;30.13;15.43;;;;;;;;;;5026637;28;20196;-48
2021/03/03 03:45:00;;;;;;;32.87;16.27;;;;;;;;;;5047434;28;20281;-49
2021/03/03 03:47:26;;;;;;;38.73;17.40;;;;;;;;;;5046483;28;20293;-45
2021/03/03 03:49:52;;;;;;;38.80;18.63;;;;;;;;;;5048450;28;20197;-46
2021/03/03 03:52:19;;;;;;;42.40;19.23;;;;;;;;;;5051047;28;20197;-48
2021/03/03 03:54:51;;;;;;;40.90;18.03;;;;;;;;;;5044472;28;20213;-47
2021/03/03 03:57:17;;;;;;;31.57;17.20;;;;;;;;;;5021830;28;20194;-49
2021/03/03 03:59:42;;;;;;;32.00;16.07;;;;;;;;;;5043924;28;20220;-48
2021/03/03 04:02:08;;;;;;;34.60;17.07;;;;;;;;;;5044366;28;20205;-47
2021/03/03 04:04:33;;;;;;;30.97;15.60;;;;;;;;;;5041721;28;20734;-49
2021/03/03 04:06:58;;;;;;;33.53;16.50;;;;;;;;;;5045892;28;20206;-49
2021/03/03 04:09:23;;;;;;;30.97;16.57;;;;;;;;;;5049009;28;20696;-50
2021/03/03 04:11:49;;;;;;;43.00;18.60;;;;;;;;;;5042591;28;20396;-47
2021/03/03 04:14:14;;;;;;;43.47;18.90;;;;;;;;;;5043126;28;20243;-48
2021/03/03 04:16:39;;;;;;;39.50;17.20;;;;;;;;;;5032830;28;20205;-50
2021/03/03 04:19:04;;;;;;;36.83;18.30;;;;;;;;;;5044953;28;20236;-48
2021/03/03 04:21:30;;;;;;;36.07;17.37;;;;;;;;;;5047717;28;20181;-50
2021/03/03 04:23:55;;;;;;;37.37;17.97;;;;;;;;;;5046375;28;20204;-46
2021/03/03 04:26:20;;;;;;;41.30;18.53;;;;;;;;;;5045125;28;20225;-47
2021/03/03 04:28:46;;;;;;;42.93;20.00;;;;;;;;;;5047197;28;20197;-49
2021/03/03 04:31:11;;;;;;;49.40;19.77;;;;;;;;;;5045207;28;20676;-48
2021/03/03 04:33:36;;;;;;;37.77;17.67;;;;;;;;;;5029904;28;20282;-47
2021/03/03 04:36:02;;;;;;;40.37;17.47;;;;;;;;;;5044783;28;20202;-47
2021/03/03 04:38:27;;;;;;;38.20;18.77;;;;;;;;;;5046748;28;20174;-45
2021/03/03 04:40:52;;;;;;;35.43;17.13;;;;;;;;;;5045852;28;20255;-49
2021/03/03 04:43:18;;;;;;;30.00;16.60;;;;;;;;;;5045778;28;20196;-47
2021/03/03 04:45:43;;;;;;;34.53;16.73;;;;;;;;;;5045567;28;20198;-46
2021/03/03 04:48:09;;;;;;;32.83;16.13;;;;;;;;;;5048272;28;20210;-49
2021/03/03 04:50:34;;;;;;;30.27;14.93;;;;;;;;;;5045035;28;20535;-48
2021/03/03 04:52:59;;;;;;;31.17;15.33;;;;;;;;;;5045241;28;20232;-48
2021/03/03 04:55:25;;;;;;;35.00;16.30;;;;;;;;;;5042535;28;20218;-48
2021/03/03 04:57:50;;;;;;;34.87;16.00;;;;;;;;;;5048268;28;20196;-47
2021/03/03 05:00:16;;;;;;;32.27;15.77;;;;;;;;;;5027645;28;20222;-47
2021/03/03 05:02:41;;;;;;;32.87;16.10;;;;;;;;;;5045977;28;20269;-47
2021/03/03 05:05:07;;;;;;;33.00;17.63;;;;;;;;;;5046219;28;20186;-46
2021/03/03 05:07:32;;;;;;;29.97;15.77;;;;;;;;;;5044221;28;20202;-46
2021/03/03 05:09:58;;;;;;;33.40;16.33;;;;;;;;;;5042034;28;20236;-48
2021/03/03 05:12:23;;;;;;;33.40;16.30;;;;;;;;;;5036951;28;20185;-49
2021/03/03 05:14:48;;;;;;;31.40;16.37;;;;;;;;;;5045384;28;20812;-48
2021/03/03 05:17:14;;;;;;;30.03;15.73;;;;;;;;;;5047948;28;20666;-46
2021/03/03 05:19:39;;;;;;;34.73;16.20;;;;;;;;;;5041968;28;20206;-48
2021/03/03 05:22:04;;;;;;;28.87;15.43;;;;;;;;;;5044835;28;20316;-46
2021/03/03 05:24:29;;;;;;;30.13;15.20;;;;;;;;;;5048409;28;20194;-49
2021/03/03 05:26:55;;;;;;;29.67;15.73;;;;;;;;;;5023983;28;20284;-47
2021/03/03 05:29:20;;;;;;;30.40;14.63;;;;;;;;;;5040656;28;20210;-47
2021/03/03 05:31:45;;;;;;;36.00;15.57;;;;;;;;;;5031186;28;20182;-48
2021/03/03 05:34:11;;;;;;;27.63;15.47;;;;;;;;;;5047976;28;20200;-48
2021/03/03 05:36:36;;;;;;;28.67;14.87;;;;;;;;;;5047249;28;20186;-48
2021/03/03 05:39:02;;;;;;;28.37;15.67;;;;;;;;;;5048834;28;20190;-45
2021/03/03 05:41:27;;;;;;;36.00;17.00;;;;;;;;;;5028489;28;20281;-47
2021/03/03 05:43:53;;;;;;;30.23;15.03;;;;;;;;;;5049362;28;20190;-46
2021/03/03 05:46:19;;;;;;;29.27;15.23;;;;;;;;;;5050488;28;20218;-45
2021/03/03 05:48:48;;;;;;;28.93;16.70;;;;;;;;;;5048272;28;20275;-49
2021/03/03 05:51:14;;;;;;;28.20;14.27;;;;;;;;;;5029409;28;20228;-48
2021/03/03 05:53:39;;;;;;;29.57;15.00;;;;;;;;;;5048858;28;20179;-47
2021/03/03 05:56:07;;;;;;;26.90;14.37;;;;;;;;;;5031784;28;20665;-48
2021/03/03 05:58:37;;;;;;;28.07;15.93;;;;;;;;;;5048637;28;20186;-46
2021/03/03 06:01:05;;;;;;;26.30;13.97;;;;;;;;;;5042090;28;20617;-50
2021/03/03 06:03:30;;;;;;;22.77;12.73;;;;;;;;;;5043864;28;20833;-48
2021/03/03 06:05:56;;;;;;;24.30;13.37;;;;;;;;;;5049586;28;20202;-48
2021/03/03 06:08:23;;;;;;;24.00;12.47;;;;;;;;;;5047148;28;20601;-48
2021/03/03 06:10:49;;;;;;;25.17;13.63;;;;;;;;;;5044244;28;20259;-47
2021/03/03 06:13:15;;;;;;;24.00;12.20;;;;;;;;;;5050071;28;20244;-48
2021/03/03 06:15:41;;;;;;;19.30;12.00;;;;;;;;;;5034620;28;20896;-51
2021/03/03 06:18:09;;;;;;;18.13;10.90;;;;;;;;;;5038025;28;20197;-47
2021/03/03 06:20:37;;;;;;;22.03;12.07;;;;;;;;;;5047430;28;20209;-47
2021/03/03 06:23:21;;;;;;;17.90;10.10;;;;;;;;;;5044154;28;20272;-46
2021/03/03 06:25:56;;;;;;;15.80;9.53;;;;;;;;;;5047399;28;20627;-48
2021/03/03 06:28:44;;;;;;;14.83;8.97;;;;;;;;;;5046015;28;20185;-48
2021/03/03 06:31:31;;;;;;;16.90;9.47;;;;;;;;;;5047548;28;20221;-48
2021/03/03 06:34:16;;;;;;;18.43;9.87;;;;;;;;;;5040730;28;20204;-48
2021/03/03 06:36:46;;;;;;;16.33;9.97;;;;;;;;;;5043525;28;20615;-50
2021/03/03 06:39:18;;;;;;;15.63;9.33;;;;;;;;;;5046202;28;20617;-49
2021/03/03 06:41:46;;;;;;;14.20;9.40;;;;;;;;;;5049632;28;20190;-49
2021/03/03 06:44:11;;;;;;;17.00;8.77;;;;;;;;;;5047552;28;20190;-48
2021/03/03 06:46:37;;;;;;;15.30;9.27;;;;;;;;;;5046375;28;20212;-47
2021/03/03 06:49:02;;;;;;;15.27;9.30;;;;;;;;;;5044636;28;20189;-47
2021/03/03 06:51:33;;;;;;;14.03;9.40;;;;;;;;;;5033732;28;20186;-46
2021/03/03 06:54:03;;;;;;;13.00;8.87;;;;;;;;;;5041144;28;20799;-47
2021/03/03 06:56:30;;;;;;;15.03;9.00;;;;;;;;;;5038141;28;20193;-48
2021/03/03 06:59:08;;;;;;;20.10;9.57;;;;;;;;;;5043677;28;20194;-50
2021/03/03 07:01:34;;;;;;;13.40;9.23;;;;;;;;;;5045679;28;20182;-48
2021/03/03 07:03:59;;;;;;;14.23;9.97;;;;;;;;;;5037078;28;20567;-46
2021/03/03 07:06:31;;;;;;;15.50;9.93;;;;;;;;;;5025680;28;20186;-47
2021/03/03 07:08:59;;;;;;;16.07;9.23;;;;;;;;;;5046406;28;20723;-48
2021/03/03 07:11:27;;;;;;;14.47;9.90;;;;;;;;;;5045336;28;20193;-48
2021/03/03 07:13:52;;;;;;;12.77;9.77;;;;;;;;;;5035610;28;20464;-49
2021/03/03 07:16:18;;;;;;;12.30;9.67;;;;;;;;;;5039906;28;20189;-47
2021/03/03 07:18:43;;;;;;;11.53;9.27;;;;;;;;;;5043788;28;20197;-49
2021/03/03 07:21:08;;;;;;;14.13;9.47;;;;;;;;;;5042672;28;20243;-47
2021/03/03 07:23:48;;;;;;;13.20;9.23;;;;;;;;;;5046777;28;20339;-49
2021/03/03 07:26:16;;;;;;;11.80;9.30;;;;;;;;;;5042729;28;20197;-48
2021/03/03 07:28:42;;;;;;;12.57;9.10;;;;;;;;;;5041366;28;20228;-47
2021/03/03 07:31:09;;;;;;;10.87;8.60;;;;;;;;;;5043857;28;20205;-50
2021/03/03 07:33:37;;;;;;;12.03;8.70;;;;;;;;;;5043820;28;20178;-48
2021/03/03 07:36:05;;;;;;;13.80;9.43;;;;;;;;;;5047100;28;20251;-48
2021/03/03 07:38:32;;;;;;;13.87;9.40;;;;;;;;;;5043973;28;20258;-49
2021/03/03 07:41:06;;;;;;;11.50;9.23;;;;;;;;;;5047006;28;20243;-48
2021/03/03 07:43:33;;;;;;;12.87;9.60;;;;;;;;;;5024639;28;20186;-50
2021/03/03 07:46:06;;;;;;;13.87;9.13;;;;;;;;;;5047480;28;20340;-49
2021/03/03 07:48:32;;;;;;;14.37;9.20;;;;;;;;;;5045259;28;20240;-49
2021/03/03 07:50:58;;;;;;;11.03;9.57;;;;;;;;;;5042470;28;20660;-50
2021/03/03 07:53:24;;;;;;;10.38;8.93;;;;;;;;;;5043376;28;20218;-48
2021/03/03 07:55:54;;;;;;;13.02;10.20;;;;;;;;;;5046740;28;20372;-49
2021/03/03 07:58:22;;;;;;;12.77;9.60;;;;;;;;;;5043850;28;20243;-50
2021/03/03 08:00:47;;;;;;;11.32;9.57;;;;;;;;;;5046814;28;20217;-48
2021/03/03 08:03:13;;;;;;;13.95;10.38;;;;;;;;;;5028112;28;20567;-49
2021/03/03 08:05:39;;;;;;;16.60;10.07;;;;;;;;;;5021031;28;20186;-51
2021/03/03 08:08:07;;;;;;;11.50;10.13;;;;;;;;;;5046778;28;20233;-49
2021/03/03 08:10:38;;;;;;;14.10;10.50;;;;;;;;;;5040387;28;20202;-49
2021/03/03 08:13:16;;;;;;;13.38;9.65;;;;;;;;;;5037873;28;20255;-48
2021/03/03 08:15:44;;;;;;;12.55;10.90;;;;;;;;;;5027248;28;20253;-49
2021/03/03 08:18:27;;;;;;;14.27;10.80;;;;;;;;;;5047066;28;20200;-50
2021/03/03 08:20:55;;;;;;;13.00;10.23;;;;;;;;;;5045868;28;20630;-48
2021/03/03 08:23:32;;;;;;;11.73;10.10;;;;;;;;;;5043541;28;20264;-49
2021/03/03 08:25:59;;;;;;;14.75;9.85;;;;;;;;;;5039801;28;20269;-47
2021/03/03 08:28:52;;;;;;;14.48;9.73;;;;;;;;;;5036842;28;20273;-49
2021/03/03 08:31:19;;;;;;;11.93;9.88;;;;;;;;;;5046700;28;20630;-49
2021/03/03 08:33:47;;;;;;;12.77;9.40;;;;;;;;;;5046063;28;20251;-48
2021/03/03 08:36:21;;;;;;;11.52;9.10;;;;;;;;;;5046084;28;20194;-48
2021/03/03 08:38:55;;;;;;;11.05;8.48;;;;;;;;;;5028249;28;20189;-48
2021/03/03 08:41:28;;;;;;;10.13;8.25;;;;;;;;;;5047590;28;20228;-47
2021/03/03 08:44:06;;;;;;;10.25;8.20;;;;;;;;;;5045082;28;20479;-49
2021/03/03 08:46:33;;;;;;;10.98;9.50;;;;;;;;;;5019870;28;20300;-48
2021/03/03 08:48:59;;;;;;;11.30;10.13;;;;;;;;;;5042722;28;20198;-49
2021/03/03 08:51:38;;;;;;;12.13;9.82;;;;;;;;;;5046218;28;20567;-49
2021/03/03 08:54:37;;;;;;;10.40;9.02;;;;;;;;;;5028581;28;20193;-48
2021/03/03 08:57:02;;;;;;;10.70;9.43;;;;;;;;;;5028658;28;20185;-49
2021/03/03 08:59:36;;;;;;;10.38;8.30;;;;;;;;;;5046092;28;20280;-48
2021/03/03 09:02:12;;;;;;;8.95;7.90;;;;;;;;;;5047505;28;20677;-49
2021/03/03 09:04:54;;;;;;;8.70;7.70;;;;;;;;;;5045813;28;20606;-48
2021/03/03 09:07:29;;;;;;;8.90;7.95;;;;;;;;;;5048755;28;20279;-49
2021/03/03 09:10:05;;;;;;;10.15;8.15;;;;;;;;;;5045310;28;20256;-48
2021/03/03 09:12:33;;;;;;;10.00;8.05;;;;;;;;;;5038642;28;20209;-49
2021/03/03 09:15:00;;;;;;;11.32;7.75;;;;;;;;;;5027164;28;20474;-50
2021/03/03 09:17:28;;;;;;;10.32;7.93;;;;;;;;;;5042809;28;20197;-48
2021/03/03 09:19:55;;;;;;;10.95;8.05;;;;;;;;;;5044868;28;20319;-52
2021/03/03 09:22:22;;;;;;;8.98;7.72;;;;;;;;;;5044681;28;20209;-50
2021/03/03 09:24:52;;;;;;;9.93;8.32;;;;;;;;;;5040526;28;20182;-51
2021/03/03 09:27:19;;;;;;;10.48;8.55;;;;;;;;;;5043150;28;20221;-50
2021/03/03 09:29:45;;;;;;;11.68;9.02;;;;;;;;;;5041395;28;20193;-51
2021/03/03 09:32:13;;;;;;;11.75;8.75;;;;;;;;;;5045719;28;20701;-48
2021/03/03 09:34:59;;;;;;;10.23;8.20;;;;;;;;;;5044798;28;20375;-47
2021/03/03 09:37:24;;;;;;;11.90;9.02;;;;;;;;;;5042811;28;20186;-48
2021/03/03 09:39:55;;;;;;;13.63;9.07;;;;;;;;;;5043459;28;20260;-49
2021/03/03 09:42:21;;;;;;;13.00;9.02;;;;;;;;;;5046079;28;20240;-50
2021/03/03 09:44:52;;;;;;;11.52;8.52;;;;;;;;;;5033386;28;20214;-49
2021/03/03 09:47:24;;;;;;;11.02;8.48;;;;;;;;;;5043344;28;20298;-50
2021/03/03 09:49:49;;;;;;;12.55;9.07;;;;;;;;;;5041570;28;20209;-51
2021/03/03 09:52:15;;;;;;;11.23;8.30;;;;;;;;;;5046904;28;20193;-48
2021/03/03 09:54:40;;;;;;;9.73;7.93;;;;;;;;;;5042487;28;20189;-50
2021/03/03 09:57:07;;;;;;;10.95;8.45;;;;;;;;;;5043077;28;20248;-49
2021/03/03 09:59:34;;;;;;;13.00;8.82;;;;;;;;;;5046171;28;20220;-55
2021/03/03 10:02:00;;;;;;;15.30;9.20;;;;;;;;;;5044323;28;20276;-49
2021/03/03 10:04:26;;;;;;;12.35;9.18;;;;;;;;;;5029807;28;20277;-50
2021/03/03 10:06:53;;;;;;;12.75;9.07;;;;;;;;;;5042223;28;20332;-49
2021/03/03 10:09:18;;;;;;;9.95;8.52;;;;;;;;;;5041316;28;20216;-50
2021/03/03 10:11:44;;;;;;;9.93;8.57;;;;;;;;;;5026688;28;20654;-52
2021/03/03 10:14:09;;;;;;;11.48;9.27;;;;;;;;;;5043547;28;20193;-47
2021/03/03 10:16:35;;;;;;;10.45;8.73;;;;;;;;;;5044959;28;20643;-49
2021/03/03 10:19:01;;;;;;;12.70;9.10;;;;;;;;;;5042963;28;20779;-54
2021/03/03 10:21:27;;;;;;;13.70;8.85;;;;;;;;;;5047646;28;20186;-48
2021/03/03 10:23:52;;;;;;;12.43;9.68;;;;;;;;;;5044581;28;20684;-49
2021/03/03 10:26:23;;;;;;;10.35;8.85;;;;;;;;;;5043751;28;20674;-50
2021/03/03 10:28:52;;;;;;;10.73;8.93;;;;;;;;;;5027184;28;20254;-53
2021/03/03 10:31:23;;;;;;;11.52;9.93;;;;;;;;;;5040901;28;20241;-51
2021/03/03 10:33:48;;;;;;;12.82;10.00;;;;;;;;;;5043313;28;20194;-51
2021/03/03 10:36:13;;;;;;;11.23;9.68;;;;;;;;;;5045483;28;20283;-49
2021/03/03 10:38:47;;;;;;;13.32;9.63;;;;;;;;;;5044489;28;20666;-51
2021/03/03 10:41:33;;;;;;;13.77;9.63;;;;;;;;;;5042685;28;20603;-50
2021/03/03 10:43:58;;;;;;;13.45;10.18;;;;;;;;;;5044169;28;20197;-49
2021/03/03 10:46:26;;;;;;;12.15;8.90;;;;;;;;;;5025148;28;20198;-49
2021/03/03 10:48:52;;;;;;;15.48;10.15;;;;;;;;;;5039683;28;20277;-55
2021/03/03 10:51:20;;;;;;;11.70;9.88;;;;;;;;;;5032952;28;20597;-50
2021/03/03 10:53:59;;;;;;;15.27;10.32;;;;;;;;;;5045489;28;20259;-51
2021/03/03 10:56:28;;;;;;;13.32;10.90;;;;;;;;;;5043557;28;20243;-49
2021/03/03 10:58:55;;;;;;;10.18;9.18;;;;;;;;;;5026326;28;20198;-50
2021/03/03 11:01:21;;;;;;;13.35;10.10;;;;;;;;;;5038966;28;20215;-49
2021/03/03 11:03:50;;;;;;;13.73;10.32;;;;;;;;;;5026718;28;20618;-54
2021/03/03 11:06:16;;;;;;;13.18;9.95;;;;;;;;;;5019308;28;20289;-50
2021/03/03 11:08:43;;;;;;;14.32;10.13;;;;;;;;;;5039357;28;20292;-50
2021/03/03 11:11:09;;;;;;;14.38;9.63;;;;;;;;;;5039028;28;20651;-49
2021/03/03 11:13:34;;;;;;;15.52;9.93;;;;;;;;;;5043730;28;20638;-49
2021/03/03 11:16:01;;;;;;;10.93;8.23;;;;;;;;;;5044867;28;20702;-52
2021/03/03 11:18:26;;;;;;;11.98;8.75;;;;;;;;;;5041511;28;20269;-49
2021/03/03 11:20:51;;;;;;;13.90;8.43;;;;;;;;;;5023656;28;20292;-48
2021/03/03 11:23:16;;;;;;;10.88;8.18;;;;;;;;;;5042503;28;20221;-50
2021/03/03 11:25:42;;;;;;;12.90;8.70;;;;;;;;;;5042871;28;20198;-52
2021/03/03 11:28:07;;;;;;;15.63;8.77;;;;;;;;;;5037224;28;20218;-49
2021/03/03 11:30:33;;;;;;;13.80;8.57;;;;;;;;;;5036450;28;20213;-49
2021/03/03 11:32:58;;;;;;;12.15;8.07;;;;;;;;;;5043337;28;20297;-47
2021/03/03 11:35:25;;;;;;;15.80;9.43;;;;;;;;;;5043692;28;20232;-53
2021/03/03 11:37:51;;;;;;;15.98;8.85;;;;;;;;;;5038669;28;20193;-49
2021/03/03 11:40:16;;;;;;;16.65;9.43;;;;;;;;;;5041553;28;20718;-48
2021/03/03 11:42:42;;;;;;;15.75;8.63;;;;;;;;;;5044877;28;20189;-51
2021/03/03 11:45:08;;;;;;;15.25;9.20;;;;;;;;;;5044005;28;20965;-49
2021/03/03 11:47:33;;;;;;;16.50;9.23;;;;;;;;;;5042652;28;20236;-50
2021/03/03 11:49:59;;;;;;;13.43;7.88;;;;;;;;;;5044510;28;20210;-49
2021/03/03 11:52:24;;;;;;;18.35;9.70;;;;;;;;;;5044818;28;20185;-49
2021/03/03 11:54:49;;;;;;;15.43;9.95;;;;;;;;;;5043421;28;20217;-49
2021/03/03 11:57:15;;;;;;;14.43;9.07;;;;;;;;;;5026934;28;20201;-52
2021/03/03 11:59:40;;;;;;;15.65;9.88;;;;;;;;;;5031946;28;20212;-49
2021/03/03 12:02:06;;;;;;;17.33;10.25;;;;;;;;;;5038165;28;20534;-53
2021/03/03 12:04:31;;;;;;;14.43;10.57;;;;;;;;;;5043129;28;20194;-49
2021/03/03 12:06:56;;;;;;;17.55;11.07;;;;;;;;;;5038479;28;20215;-51
2021/03/03 12:09:21;;;;;;;19.25;11.30;;;;;;;;;;5044408;28;20224;-51
2021/03/03 12:11:47;;;;;;;19.13;10.32;;;;;;;;;;5025129;28;20201;-53
2021/03/03 12:14:12;;;;;;;20.25;12.10;;;;;;;;;;5043009;28;20232;-49
2021/03/03 12:16:37;;;;;;;17.02;11.18;;;;;;;;;;5026866;28;20190;-49
2021/03/03 12:19:03;;;;;;;19.55;11.68;;;;;;;;;;5038895;28;20189;-48
2021/03/03 12:21:28;;;;;;;19.27;12.30;;;;;;;;;;5038689;28;20189;-51
2021/03/03 12:23:53;;;;;;;18.70;12.70;;;;;;;;;;5043635;28;20239;-49
2021/03/03 12:26:18;;;;;;;17.77;12.73;;;;;;;;;;5042109;28;20189;-50
2021/03/03 12:28:44;;;;;;;18.10;11.73;;;;;;;;;;5044370;28;20214;-51
2021/03/03 12:31:11;;;;;;;24.13;13.65;;;;;;;;;;5027331;28;20979;-49
2021/03/03 12:33:37;;;;;;;18.60;12.48;;;;;;;;;;5041658;28;20268;-50
2021/03/03 12:36:02;;;;;;;21.05;12.15;;;;;;;;;;5039602;28;20280;-52
2021/03/03 12:38:27;;;;;;;21.88;12.88;;;;;;;;;;5038718;28;20244;-50
2021/03/03 12:40:53;;;;;;;20.58;12.70;;;;;;;;;;5044281;28;20688;-49
2021/03/03 12:43:18;;;;;;;21.50;12.20;;;;;;;;;;5034578;28;20196;-50
2021/03/03 12:45:43;;;;;;;21.33;12.73;;;;;;;;;;5045520;28;20201;-49
2021/03/03 12:48:09;;;;;;;19.08;12.23;;;;;;;;;;5047235;28;20360;-48
2021/03/03 12:50:34;;;;;;;21.85;12.93;;;;;;;;;;5048505;28;20205;-48
2021/03/03 12:52:59;;;;;;;18.27;12.60;;;;;;;;;;5045675;28;20174;-50
2021/03/03 12:55:25;;;;;;;20.63;13.15;;;;;;;;;;5045939;28;20208;-53
2021/03/03 12:57:50;;;;;;;18.75;12.57;;;;;;;;;;5045332;28;20209;-51
2021/03/03 13:00:17;;;;;;;22.52;13.23;;;;;;;;;;5045576;28;20198;-49
2021/03/03 13:02:47;;;;;;;19.90;13.45;;;;;;;;;;5046198;28;20280;-53
2021/03/03 13:05:12;;;;;;;21.25;12.90;;;;;;;;;;5046128;28;20210;-49
2021/03/03 13:07:37;;;;;;;21.08;13.70;;;;;;;;;;5046638;28;20218;-48
2021/03/03 13:10:03;;;;;;;22.25;13.73;;;;;;;;;;5043240;28;20213;-52
2021/03/03 13:12:29;;;;;;;21.02;13.77;;;;;;;;;;5044613;28;20201;-48
2021/03/03 13:14:54;;;;;;;20.83;14.73;;;;;;;;;;5040027;28;20194;-51
2021/03/03 13:17:19;;;;;;;23.00;15.00;;;;;;;;;;5033451;28;20194;-50
2021/03/03 13:19:44;;;;;;;30.17;15.75;;;;;;;;;;5044700;28;20202;-52
2021/03/03 13:22:10;;;;;;;24.65;16.65;;;;;;;;;;5044136;28;20752;-48
2021/03/03 13:24:35;;;;;;;22.73;14.68;;;;;;;;;;5043136;28;20197;-49
2021/03/03 13:27:00;;;;;;;24.45;16.17;;;;;;;;;;5041863;28;20202;-50
2021/03/03 13:29:25;;;;;;;20.85;14.75;;;;;;;;;;5046142;28;20256;-53
2021/03/03 13:31:54;;;;;;;21.67;15.80;;;;;;;;;;5039310;28;20182;-50
2021/03/03 13:34:19;;;;;;;20.17;15.75;;;;;;;;;;5039848;28;20232;-48
2021/03/03 13:36:45;;;;;;;24.77;16.95;;;;;;;;;;5044392;28;20206;-52
2021/03/03 13:39:13;;;;;;;24.63;16.67;;;;;;;;;;5047001;28;20193;-49
2021/03/03 13:41:38;;;;;;;27.00;17.63;;;;;;;;;;5028072;28;20747;-51
2021/03/03 13:44:04;;;;;;;26.52;16.48;;;;;;;;;;5037791;28;20194;-53
2021/03/03 13:46:29;;;;;;;22.10;14.90;;;;;;;;;;5040016;28;20764;-48
2021/03/03 13:48:55;;;;;;;24.58;16.48;;;;;;;;;;5044584;28;20785;-51
2021/03/03 13:51:20;;;;;;;25.27;16.83;;;;;;;;;;5041134;28;20264;-50
2021/03/03 13:53:45;;;;;;;30.85;16.63;;;;;;;;;;5042946;28;20243;-51
2021/03/03 13:56:10;;;;;;;28.02;17.00;;;;;;;;;;5028351;28;20284;-50
2021/03/03 13:58:39;;;;;;;22.30;15.68;;;;;;;;;;5033207;28;20798;-50
2021/03/03 14:01:05;;;;;;;23.42;15.60;;;;;;;;;;5044400;28;20381;-49
2021/03/03 14:03:30;;;;;;;28.52;17.25;;;;;;;;;;5026319;28;20616;-49
2021/03/03 14:05:55;;;;;;;25.65;16.25;;;;;;;;;;5037779;28;20208;-51
2021/03/03 14:08:21;;;;;;;27.00;16.30;;;;;;;;;;5043409;28;20209;-49
2021/03/03 14:10:46;;;;;;;27.00;16.77;;;;;;;;;;5029486;28;20281;-50
2021/03/03 14:13:11;;;;;;;24.08;16.50;;;;;;;;;;5043742;28;20218;-50
2021/03/03 14:15:36;;;;;;;24.60;16.30;;;;;;;;;;5038108;28;20726;-49
2021/03/03 14:18:02;;;;;;;25.45;16.25;;;;;;;;;;5040880;28;20226;-52
2021/03/03 14:20:27;;;;;;;28.02;15.98;;;;;;;;;;5031098;28;20214;-49
2021/03/03 14:22:53;;;;;;;26.35;16.63;;;;;;;;;;5037733;28;20196;-49